sensor_id;sensor_type;location;lat;lon;timestamp;P1;durP1;ratioP1;P2;durP2;ratioP2
21162;SDS011;10739;52.198;20.908;2023-02-15T00:00:05;60.55;;;35.47;;
21162;SDS011;10739;52.198;20.908;2023-02-15T00:02:35;58.38;;;34.42;;
21162;SDS011;10739;52.198;20.908;2023-02-15T00:05:02;61.70;;;35.45;;
21162;SDS011;10739;52.198;20.908;2023-02-15T00:07:29;73.70;;;38.28;;
21162;SDS011;10739;52.198;20.908;2023-02-15T00:09:55;64.75;;;38.45;;
21162;SDS011;10739;52.198;20.908;2023-02-15T00:12:21;63.00;;;35.80;;
21162;SDS011;10739;52.198;20.908;2023-02-15T00:14:47;66.13;;;38.15;;
21162;SDS011;10739;52.198;20.908;2023-02-15T00:17:14;70.22;;;38.67;;
21162;SDS011;10739;52.198;20.908;2023-02-15T00:19:40;72.82;;;36.80;;
21162;SDS011;10739;52.198;20.908;2023-02-15T00:22:07;65.72;;;38.47;;
21162;SDS011;10739;52.198;20.908;2023-02-15T00:24:34;70.53;;;40.95;;
21162;SDS011;10739;52.198;20.908;2023-02-15T00:27:00;71.68;;;39.80;;
21162;SDS011;10739;52.198;20.908;2023-02-15T00:29:27;73.03;;;41.75;;
21162;SDS011;10739;52.198;20.908;2023-02-15T00:31:53;70.78;;;40.42;;
21162;SDS011;10739;52.198;20.908;2023-02-15T00:34:21;69.20;;;40.53;;
21162;SDS011;10739;52.198;20.908;2023-02-15T00:36:50;68.65;;;41.13;;
21162;SDS011;10739;52.198;20.908;2023-02-15T00:39:17;78.15;;;41.92;;
21162;SDS011;10739;52.198;20.908;2023-02-15T00:41:45;73.00;;;42.42;;
21162;SDS011;10739;52.198;20.908;2023-02-15T00:44:12;76.95;;;42.38;;
21162;SDS011;10739;52.198;20.908;2023-02-15T00:46:40;70.53;;;41.25;;
21162;SDS011;10739;52.198;20.908;2023-02-15T00:49:07;73.18;;;42.03;;
21162;SDS011;10739;52.198;20.908;2023-02-15T00:51:33;75.20;;;41.65;;
21162;SDS011;10739;52.198;20.908;2023-02-15T00:53:59;77.93;;;43.92;;
21162;SDS011;10739;52.198;20.908;2023-02-15T00:56:26;81.22;;;43.38;;
21162;SDS011;10739;52.198;20.908;2023-02-15T00:58:53;75.65;;;43.17;;
21162;SDS011;10739;52.198;20.908;2023-02-15T01:01:20;68.40;;;39.78;;
21162;SDS011;10739;52.198;20.908;2023-02-15T01:03:48;75.78;;;41.60;;
21162;SDS011;10739;52.198;20.908;2023-02-15T01:06:15;68.30;;;43.22;;
21162;SDS011;10739;52.198;20.908;2023-02-15T01:08:43;73.13;;;40.53;;
21162;SDS011;10739;52.198;20.908;2023-02-15T01:11:12;70.90;;;41.55;;
21162;SDS011;10739;52.198;20.908;2023-02-15T01:13:51;72.82;;;40.53;;
21162;SDS011;10739;52.198;20.908;2023-02-15T01:16:20;75.68;;;41.60;;
21162;SDS011;10739;52.198;20.908;2023-02-15T01:18:49;71.50;;;41.08;;
21162;SDS011;10739;52.198;20.908;2023-02-15T01:21:17;71.22;;;41.17;;
21162;SDS011;10739;52.198;20.908;2023-02-15T01:23:46;74.63;;;42.40;;
21162;SDS011;10739;52.198;20.908;2023-02-15T01:26:13;77.38;;;43.55;;
21162;SDS011;10739;52.198;20.908;2023-02-15T01:28:40;70.40;;;40.88;;
21162;SDS011;10739;52.198;20.908;2023-02-15T01:31:08;79.30;;;41.55;;
21162;SDS011;10739;52.198;20.908;2023-02-15T01:33:38;74.25;;;43.05;;
21162;SDS011;10739;52.198;20.908;2023-02-15T01:36:05;74.28;;;41.83;;
21162;SDS011;10739;52.198;20.908;2023-02-15T01:38:32;68.95;;;39.50;;
21162;SDS011;10739;52.198;20.908;2023-02-15T01:41:00;69.82;;;41.40;;
21162;SDS011;10739;52.198;20.908;2023-02-15T01:43:47;71.65;;;41.83;;
21162;SDS011;10739;52.198;20.908;2023-02-15T01:46:22;79.15;;;43.58;;
21162;SDS011;10739;52.198;20.908;2023-02-15T01:49:16;78.18;;;42.50;;
21162;SDS011;10739;52.198;20.908;2023-02-15T01:51:47;70.85;;;40.63;;
21162;SDS011;10739;52.198;20.908;2023-02-15T01:54:36;73.37;;;41.57;;
21162;SDS011;10739;52.198;20.908;2023-02-15T01:57:07;72.03;;;40.92;;
21162;SDS011;10739;52.198;20.908;2023-02-15T01:59:41;70.90;;;42.35;;
21162;SDS011;10739;52.198;20.908;2023-02-15T02:02:14;67.55;;;40.83;;
21162;SDS011;10739;52.198;20.908;2023-02-15T02:04:47;73.27;;;40.23;;
21162;SDS011;10739;52.198;20.908;2023-02-15T02:07:18;69.50;;;40.33;;
21162;SDS011;10739;52.198;20.908;2023-02-15T02:09:48;80.05;;;42.28;;
21162;SDS011;10739;52.198;20.908;2023-02-15T02:12:16;70.95;;;41.25;;
21162;SDS011;10739;52.198;20.908;2023-02-15T02:14:45;65.35;;;39.72;;
21162;SDS011;10739;52.198;20.908;2023-02-15T02:20:15;67.55;;;39.92;;
21162;SDS011;10739;52.198;20.908;2023-02-15T02:26:11;68.20;;;40.10;;
21162;SDS011;10739;52.198;20.908;2023-02-15T02:34:47;73.55;;;41.05;;
21162;SDS011;10739;52.198;20.908;2023-02-15T02:49:33;62.33;;;36.67;;
21162;SDS011;10739;52.198;20.908;2023-02-15T02:52:04;69.97;;;39.22;;
21162;SDS011;10739;52.198;20.908;2023-02-15T02:54:52;67.55;;;36.20;;
21162;SDS011;10739;52.198;20.908;2023-02-15T02:57:21;67.07;;;36.22;;
21162;SDS011;10739;52.198;20.908;2023-02-15T02:59:51;68.43;;;38.17;;
21162;SDS011;10739;52.198;20.908;2023-02-15T03:02:24;62.97;;;36.53;;
21162;SDS011;10739;52.198;20.908;2023-02-15T03:05:05;69.05;;;36.35;;
21162;SDS011;10739;52.198;20.908;2023-02-15T03:07:41;63.20;;;36.35;;
21162;SDS011;10739;52.198;20.908;2023-02-15T03:10:15;66.93;;;37.13;;
21162;SDS011;10739;52.198;20.908;2023-02-15T03:12:46;71.55;;;36.65;;
21162;SDS011;10739;52.198;20.908;2023-02-15T03:15:15;72.57;;;37.90;;
21162;SDS011;10739;52.198;20.908;2023-02-15T03:17:48;71.55;;;35.05;;
21162;SDS011;10739;52.198;20.908;2023-02-15T03:20:29;69.13;;;37.22;;
21162;SDS011;10739;52.198;20.908;2023-02-15T03:23:06;70.45;;;39.95;;
21162;SDS011;10739;52.198;20.908;2023-02-15T03:25:40;62.33;;;36.30;;
21162;SDS011;10739;52.198;20.908;2023-02-15T03:28:18;61.35;;;33.63;;
21162;SDS011;10739;52.198;20.908;2023-02-15T03:30:53;63.60;;;35.92;;
21162;SDS011;10739;52.198;20.908;2023-02-15T03:33:25;56.28;;;34.13;;
21162;SDS011;10739;52.198;20.908;2023-02-15T03:38:35;68.97;;;37.47;;
21162;SDS011;10739;52.198;20.908;2023-02-15T03:41:26;59.47;;;35.65;;
21162;SDS011;10739;52.198;20.908;2023-02-15T03:44:07;61.30;;;33.97;;
21162;SDS011;10739;52.198;20.908;2023-02-15T03:46:51;58.22;;;33.97;;
21162;SDS011;10739;52.198;20.908;2023-02-15T03:52:11;48.40;;;28.80;;
21162;SDS011;10739;52.198;20.908;2023-02-15T03:54:40;54.03;;;29.92;;
21162;SDS011;10739;52.198;20.908;2023-02-15T03:57:13;41.90;;;24.13;;
21162;SDS011;10739;52.198;20.908;2023-02-15T04:00:09;39.80;;;25.02;;
21162;SDS011;10739;52.198;20.908;2023-02-15T04:06:04;30.60;;;19.40;;
21162;SDS011;10739;52.198;20.908;2023-02-15T04:08:31;41.58;;;24.23;;
21162;SDS011;10739;52.198;20.908;2023-02-15T04:11:16;45.78;;;26.02;;
21162;SDS011;10739;52.198;20.908;2023-02-15T04:13:43;39.05;;;24.45;;
21162;SDS011;10739;52.198;20.908;2023-02-15T04:16:10;37.30;;;23.00;;
21162;SDS011;10739;52.198;20.908;2023-02-15T04:18:37;41.45;;;25.25;;
21162;SDS011;10739;52.198;20.908;2023-02-15T04:21:26;34.40;;;21.63;;
21162;SDS011;10739;52.198;20.908;2023-02-15T04:24:14;33.13;;;21.27;;
21162;SDS011;10739;52.198;20.908;2023-02-15T04:27:00;35.03;;;21.77;;
21162;SDS011;10739;52.198;20.908;2023-02-15T04:29:27;38.00;;;21.25;;
21162;SDS011;10739;52.198;20.908;2023-02-15T04:31:54;33.50;;;20.70;;
21162;SDS011;10739;52.198;20.908;2023-02-15T04:34:23;38.78;;;22.52;;
21162;SDS011;10739;52.198;20.908;2023-02-15T04:36:50;43.70;;;25.15;;
21162;SDS011;10739;52.198;20.908;2023-02-15T04:39:17;44.63;;;26.30;;
21162;SDS011;10739;52.198;20.908;2023-02-15T04:41:44;43.97;;;25.40;;
21162;SDS011;10739;52.198;20.908;2023-02-15T04:44:13;39.75;;;25.85;;
21162;SDS011;10739;52.198;20.908;2023-02-15T04:46:39;45.42;;;25.35;;
21162;SDS011;10739;52.198;20.908;2023-02-15T04:49:05;41.42;;;25.80;;
21162;SDS011;10739;52.198;20.908;2023-02-15T04:51:32;42.38;;;24.08;;
21162;SDS011;10739;52.198;20.908;2023-02-15T04:53:59;39.45;;;24.08;;
21162;SDS011;10739;52.198;20.908;2023-02-15T04:56:25;41.30;;;24.05;;
21162;SDS011;10739;52.198;20.908;2023-02-15T04:58:52;39.35;;;22.42;;
21162;SDS011;10739;52.198;20.908;2023-02-15T05:01:23;40.13;;;22.73;;
21162;SDS011;10739;52.198;20.908;2023-02-15T05:03:49;43.28;;;24.65;;
21162;SDS011;10739;52.198;20.908;2023-02-15T05:06:16;41.38;;;23.92;;
21162;SDS011;10739;52.198;20.908;2023-02-15T05:08:42;42.40;;;24.42;;
21162;SDS011;10739;52.198;20.908;2023-02-15T05:11:08;39.05;;;22.63;;
21162;SDS011;10739;52.198;20.908;2023-02-15T05:13:35;40.70;;;22.85;;
21162;SDS011;10739;52.198;20.908;2023-02-15T05:16:01;38.67;;;23.48;;
21162;SDS011;10739;52.198;20.908;2023-02-15T05:18:27;38.58;;;23.40;;
21162;SDS011;10739;52.198;20.908;2023-02-15T05:20:54;43.22;;;25.00;;
21162;SDS011;10739;52.198;20.908;2023-02-15T05:23:20;46.10;;;26.83;;
21162;SDS011;10739;52.198;20.908;2023-02-15T05:25:47;49.20;;;27.52;;
21162;SDS011;10739;52.198;20.908;2023-02-15T05:28:34;49.40;;;27.40;;
21162;SDS011;10739;52.198;20.908;2023-02-15T05:31:04;44.25;;;25.02;;
21162;SDS011;10739;52.198;20.908;2023-02-15T05:33:39;48.05;;;27.10;;
21162;SDS011;10739;52.198;20.908;2023-02-15T05:36:06;41.40;;;25.23;;
21162;SDS011;10739;52.198;20.908;2023-02-15T05:38:33;47.15;;;25.92;;
21162;SDS011;10739;52.198;20.908;2023-02-15T05:41:05;44.55;;;25.02;;
21162;SDS011;10739;52.198;20.908;2023-02-15T05:43:33;45.38;;;24.65;;
21162;SDS011;10739;52.198;20.908;2023-02-15T05:46:00;41.53;;;24.90;;
21162;SDS011;10739;52.198;20.908;2023-02-15T05:48:28;41.58;;;25.58;;
21162;SDS011;10739;52.198;20.908;2023-02-15T05:50:59;48.05;;;27.45;;
21162;SDS011;10739;52.198;20.908;2023-02-15T05:53:32;48.50;;;29.27;;
21162;SDS011;10739;52.198;20.908;2023-02-15T05:56:03;50.22;;;28.52;;
21162;SDS011;10739;52.198;20.908;2023-02-15T05:58:34;47.17;;;26.55;;
21162;SDS011;10739;52.198;20.908;2023-02-15T06:03:42;45.50;;;25.63;;
21162;SDS011;10739;52.198;20.908;2023-02-15T06:06:10;43.45;;;25.45;;
21162;SDS011;10739;52.198;20.908;2023-02-15T06:08:37;50.72;;;29.40;;
21162;SDS011;10739;52.198;20.908;2023-02-15T06:11:04;52.88;;;28.98;;
21162;SDS011;10739;52.198;20.908;2023-02-15T06:13:32;47.60;;;27.27;;
21162;SDS011;10739;52.198;20.908;2023-02-15T06:16:00;46.30;;;27.13;;
21162;SDS011;10739;52.198;20.908;2023-02-15T06:18:26;52.75;;;28.48;;
21162;SDS011;10739;52.198;20.908;2023-02-15T06:20:53;49.72;;;28.77;;
21162;SDS011;10739;52.198;20.908;2023-02-15T06:23:19;41.85;;;26.17;;
21162;SDS011;10739;52.198;20.908;2023-02-15T06:25:45;51.67;;;26.63;;
21162;SDS011;10739;52.198;20.908;2023-02-15T06:28:12;44.25;;;27.08;;
21162;SDS011;10739;52.198;20.908;2023-02-15T06:30:39;48.55;;;27.40;;
21162;SDS011;10739;52.198;20.908;2023-02-15T06:33:05;50.83;;;26.92;;
21162;SDS011;10739;52.198;20.908;2023-02-15T06:35:32;49.35;;;28.58;;
21162;SDS011;10739;52.198;20.908;2023-02-15T06:37:58;49.90;;;28.08;;
21162;SDS011;10739;52.198;20.908;2023-02-15T06:40:24;52.03;;;28.25;;
21162;SDS011;10739;52.198;20.908;2023-02-15T06:42:51;53.13;;;30.27;;
21162;SDS011;10739;52.198;20.908;2023-02-15T06:45:17;49.95;;;28.35;;
21162;SDS011;10739;52.198;20.908;2023-02-15T06:47:43;46.45;;;27.88;;
21162;SDS011;10739;52.198;20.908;2023-02-15T06:50:10;48.70;;;27.10;;
21162;SDS011;10739;52.198;20.908;2023-02-15T06:52:37;47.63;;;26.52;;
21162;SDS011;10739;52.198;20.908;2023-02-15T06:55:03;52.67;;;27.45;;
21162;SDS011;10739;52.198;20.908;2023-02-15T06:57:30;50.25;;;28.90;;
21162;SDS011;10739;52.198;20.908;2023-02-15T06:59:58;47.25;;;27.08;;
21162;SDS011;10739;52.198;20.908;2023-02-15T07:02:25;44.08;;;24.65;;
21162;SDS011;10739;52.198;20.908;2023-02-15T07:04:51;42.20;;;24.73;;
21162;SDS011;10739;52.198;20.908;2023-02-15T07:07:18;49.38;;;25.98;;
21162;SDS011;10739;52.198;20.908;2023-02-15T07:09:44;52.35;;;28.15;;
21162;SDS011;10739;52.198;20.908;2023-02-15T07:12:11;49.75;;;27.75;;
21162;SDS011;10739;52.198;20.908;2023-02-15T07:14:55;45.72;;;27.80;;
21162;SDS011;10739;52.198;20.908;2023-02-15T07:17:23;50.28;;;27.60;;
21162;SDS011;10739;52.198;20.908;2023-02-15T07:19:54;46.45;;;28.42;;
21162;SDS011;10739;52.198;20.908;2023-02-15T07:22:20;52.70;;;28.33;;
21162;SDS011;10739;52.198;20.908;2023-02-15T07:24:46;46.65;;;24.95;;
21162;SDS011;10739;52.198;20.908;2023-02-15T07:27:14;44.85;;;24.55;;
21162;SDS011;10739;52.198;20.908;2023-02-15T07:29:41;44.33;;;23.17;;
21162;SDS011;10739;52.198;20.908;2023-02-15T07:32:07;48.28;;;23.92;;
21162;SDS011;10739;52.198;20.908;2023-02-15T07:34:33;48.42;;;22.90;;
21162;SDS011;10739;52.198;20.908;2023-02-15T07:37:00;53.92;;;24.35;;
21162;SDS011;10739;52.198;20.908;2023-02-15T07:39:26;47.15;;;23.52;;
21162;SDS011;10739;52.198;20.908;2023-02-15T07:41:53;46.70;;;25.10;;
21162;SDS011;10739;52.198;20.908;2023-02-15T07:44:19;49.40;;;25.40;;
21162;SDS011;10739;52.198;20.908;2023-02-15T07:46:45;45.95;;;21.25;;
21162;SDS011;10739;52.198;20.908;2023-02-15T07:49:12;50.42;;;24.80;;
21162;SDS011;10739;52.198;20.908;2023-02-15T07:51:39;49.17;;;24.52;;
21162;SDS011;10739;52.198;20.908;2023-02-15T07:54:06;49.17;;;25.38;;
21162;SDS011;10739;52.198;20.908;2023-02-15T07:56:32;44.13;;;23.58;;
21162;SDS011;10739;52.198;20.908;2023-02-15T07:59:01;46.60;;;23.58;;
21162;SDS011;10739;52.198;20.908;2023-02-15T08:01:31;43.67;;;23.90;;
21162;SDS011;10739;52.198;20.908;2023-02-15T08:04:01;46.75;;;25.08;;
21162;SDS011;10739;52.198;20.908;2023-02-15T08:06:32;44.80;;;23.05;;
21162;SDS011;10739;52.198;20.908;2023-02-15T08:09:02;41.83;;;22.42;;
21162;SDS011;10739;52.198;20.908;2023-02-15T08:11:32;38.00;;;21.73;;
21162;SDS011;10739;52.198;20.908;2023-02-15T08:14:07;43.13;;;23.15;;
21162;SDS011;10739;52.198;20.908;2023-02-15T08:19:11;40.20;;;21.52;;
21162;SDS011;10739;52.198;20.908;2023-02-15T08:21:53;40.63;;;21.23;;
21162;SDS011;10739;52.198;20.908;2023-02-15T08:24:32;26.20;;;15.02;;
21162;SDS011;10739;52.198;20.908;2023-02-15T08:27:05;36.05;;;19.13;;
21162;SDS011;10739;52.198;20.908;2023-02-15T08:29:34;36.40;;;18.90;;
21162;SDS011;10739;52.198;20.908;2023-02-15T08:32:04;34.33;;;18.23;;
21162;SDS011;10739;52.198;20.908;2023-02-15T08:34:35;35.72;;;19.30;;
21162;SDS011;10739;52.198;20.908;2023-02-15T08:37:04;36.38;;;19.75;;
21162;SDS011;10739;52.198;20.908;2023-02-15T08:39:31;33.13;;;17.95;;
21162;SDS011;10739;52.198;20.908;2023-02-15T08:41:57;29.30;;;18.05;;
21162;SDS011;10739;52.198;20.908;2023-02-15T08:44:24;32.80;;;18.95;;
21162;SDS011;10739;52.198;20.908;2023-02-15T08:46:51;31.95;;;18.23;;
21162;SDS011;10739;52.198;20.908;2023-02-15T08:49:18;32.85;;;18.48;;
21162;SDS011;10739;52.198;20.908;2023-02-15T08:51:47;37.13;;;19.27;;
21162;SDS011;10739;52.198;20.908;2023-02-15T08:54:15;40.38;;;21.10;;
21162;SDS011;10739;52.198;20.908;2023-02-15T08:56:45;40.25;;;21.05;;
21162;SDS011;10739;52.198;20.908;2023-02-15T08:59:13;40.35;;;21.63;;
21162;SDS011;10739;52.198;20.908;2023-02-15T09:01:43;44.90;;;20.65;;
21162;SDS011;10739;52.198;20.908;2023-02-15T09:04:12;37.90;;;20.75;;
21162;SDS011;10739;52.198;20.908;2023-02-15T09:06:41;36.70;;;19.33;;
21162;SDS011;10739;52.198;20.908;2023-02-15T09:09:10;40.92;;;21.15;;
21162;SDS011;10739;52.198;20.908;2023-02-15T09:11:38;40.13;;;19.38;;
21162;SDS011;10739;52.198;20.908;2023-02-15T09:14:12;40.35;;;20.55;;
21162;SDS011;10739;52.198;20.908;2023-02-15T09:16:43;40.22;;;21.02;;
21162;SDS011;10739;52.198;20.908;2023-02-15T09:19:13;43.30;;;21.67;;
21162;SDS011;10739;52.198;20.908;2023-02-15T09:21:42;43.42;;;22.67;;
21162;SDS011;10739;52.198;20.908;2023-02-15T09:24:09;45.40;;;21.77;;
21162;SDS011;10739;52.198;20.908;2023-02-15T09:26:39;47.85;;;20.27;;
21162;SDS011;10739;52.198;20.908;2023-02-15T09:29:10;40.45;;;20.92;;
21162;SDS011;10739;52.198;20.908;2023-02-15T09:31:40;48.53;;;22.90;;
21162;SDS011;10739;52.198;20.908;2023-02-15T09:34:12;44.95;;;22.83;;
21162;SDS011;10739;52.198;20.908;2023-02-15T09:36:44;45.92;;;22.40;;
21162;SDS011;10739;52.198;20.908;2023-02-15T09:39:13;44.20;;;21.17;;
21162;SDS011;10739;52.198;20.908;2023-02-15T09:53:33;43.63;;;22.58;;
21162;SDS011;10739;52.198;20.908;2023-02-15T09:56:48;36.58;;;19.88;;
21162;SDS011;10739;52.198;20.908;2023-02-15T10:08:57;39.78;;;21.02;;
21162;SDS011;10739;52.198;20.908;2023-02-15T10:14:37;41.65;;;21.42;;
21162;SDS011;10739;52.198;20.908;2023-02-15T10:21:10;39.53;;;20.95;;
21162;SDS011;10739;52.198;20.908;2023-02-15T10:27:45;36.90;;;18.77;;
21162;SDS011;10739;52.198;20.908;2023-02-15T10:30:14;36.35;;;17.42;;
21162;SDS011;10739;52.198;20.908;2023-02-15T10:35:33;33.72;;;19.42;;
21162;SDS011;10739;52.198;20.908;2023-02-15T10:41:26;33.75;;;19.95;;
21162;SDS011;10739;52.198;20.908;2023-02-15T10:47:20;42.63;;;23.15;;
21162;SDS011;10739;52.198;20.908;2023-02-15T10:50:05;43.40;;;22.15;;
21162;SDS011;10739;52.198;20.908;2023-02-15T10:58:24;37.67;;;20.60;;
21162;SDS011;10739;52.198;20.908;2023-02-15T11:06:50;43.30;;;22.98;;
21162;SDS011;10739;52.198;20.908;2023-02-15T11:09:38;43.75;;;23.35;;
21162;SDS011;10739;52.198;20.908;2023-02-15T11:12:16;39.03;;;19.05;;
21162;SDS011;10739;52.198;20.908;2023-02-15T11:14:58;38.13;;;21.75;;
21162;SDS011;10739;52.198;20.908;2023-02-15T11:17:56;37.83;;;21.58;;
21162;SDS011;10739;52.198;20.908;2023-02-15T11:21:21;40.88;;;23.20;;
21162;SDS011;10739;52.198;20.908;2023-02-15T11:23:54;40.38;;;22.55;;
21162;SDS011;10739;52.198;20.908;2023-02-15T11:29:21;46.50;;;23.83;;
21162;SDS011;10739;52.198;20.908;2023-02-15T11:38:26;39.85;;;21.38;;
21162;SDS011;10739;52.198;20.908;2023-02-15T11:41:11;44.83;;;24.58;;
21162;SDS011;10739;52.198;20.908;2023-02-15T11:43:51;50.67;;;25.25;;
21162;SDS011;10739;52.198;20.908;2023-02-15T11:46:31;47.92;;;26.35;;
21162;SDS011;10739;52.198;20.908;2023-02-15T11:48:57;50.13;;;25.58;;
21162;SDS011;10739;52.198;20.908;2023-02-15T11:51:24;54.42;;;27.02;;
21162;SDS011;10739;52.198;20.908;2023-02-15T11:53:53;54.60;;;28.48;;
21162;SDS011;10739;52.198;20.908;2023-02-15T11:56:22;53.75;;;27.35;;
21162;SDS011;10739;52.198;20.908;2023-02-15T11:58:52;56.78;;;28.48;;
21162;SDS011;10739;52.198;20.908;2023-02-15T12:01:41;55.50;;;27.55;;
21162;SDS011;10739;52.198;20.908;2023-02-15T12:06:44;62.05;;;32.15;;
21162;SDS011;10739;52.198;20.908;2023-02-15T12:09:38;59.20;;;30.15;;
21162;SDS011;10739;52.198;20.908;2023-02-15T12:12:25;56.95;;;29.95;;
21162;SDS011;10739;52.198;20.908;2023-02-15T12:14:55;65.60;;;30.33;;
21162;SDS011;10739;52.198;20.908;2023-02-15T12:17:26;60.42;;;29.75;;
21162;SDS011;10739;52.198;20.908;2023-02-15T12:19:57;56.63;;;29.75;;
21162;SDS011;10739;52.198;20.908;2023-02-15T12:22:38;57.75;;;29.88;;
21162;SDS011;10739;52.198;20.908;2023-02-15T12:25:21;54.33;;;27.63;;
21162;SDS011;10739;52.198;20.908;2023-02-15T12:27:54;52.67;;;27.38;;
21162;SDS011;10739;52.198;20.908;2023-02-15T12:33:23;54.63;;;28.95;;
21162;SDS011;10739;52.198;20.908;2023-02-15T12:36:10;54.70;;;28.33;;
21162;SDS011;10739;52.198;20.908;2023-02-15T12:39:14;57.35;;;28.33;;
21162;SDS011;10739;52.198;20.908;2023-02-15T12:44:25;62.85;;;31.42;;
21162;SDS011;10739;52.198;20.908;2023-02-15T12:47:19;57.08;;;29.65;;
21162;SDS011;10739;52.198;20.908;2023-02-15T12:50:03;57.97;;;29.02;;
21162;SDS011;10739;52.198;20.908;2023-02-15T12:52:51;54.85;;;27.83;;
21162;SDS011;10739;52.198;20.908;2023-02-15T12:55:32;55.70;;;28.15;;
21162;SDS011;10739;52.198;20.908;2023-02-15T12:58:16;57.83;;;30.33;;
21162;SDS011;10739;52.198;20.908;2023-02-15T13:01:10;52.42;;;29.38;;
21162;SDS011;10739;52.198;20.908;2023-02-15T13:04:00;58.03;;;30.75;;
21162;SDS011;10739;52.198;20.908;2023-02-15T13:06:30;61.83;;;30.10;;
21162;SDS011;10739;52.198;20.908;2023-02-15T13:09:20;60.53;;;30.58;;
21162;SDS011;10739;52.198;20.908;2023-02-15T13:11:57;54.85;;;30.67;;
21162;SDS011;10739;52.198;20.908;2023-02-15T13:14:46;52.90;;;29.70;;
21162;SDS011;10739;52.198;20.908;2023-02-15T13:17:17;59.42;;;30.98;;
21162;SDS011;10739;52.198;20.908;2023-02-15T13:19:54;50.78;;;28.67;;
21162;SDS011;10739;52.198;20.908;2023-02-15T13:22:38;54.75;;;28.52;;
21162;SDS011;10739;52.198;20.908;2023-02-15T13:25:21;50.45;;;27.98;;
21162;SDS011;10739;52.198;20.908;2023-02-15T13:27:55;51.85;;;27.98;;
21162;SDS011;10739;52.198;20.908;2023-02-15T13:30:32;40.85;;;23.73;;
21162;SDS011;10739;52.198;20.908;2023-02-15T13:33:17;46.85;;;26.13;;
21162;SDS011;10739;52.198;20.908;2023-02-15T13:48:34;61.03;;;31.33;;
21162;SDS011;10739;52.198;20.908;2023-02-15T13:51:25;63.00;;;31.35;;
21162;SDS011;10739;52.198;20.908;2023-02-15T13:57:40;61.50;;;30.95;;
21162;SDS011;10739;52.198;20.908;2023-02-15T14:00:54;57.42;;;29.65;;
21162;SDS011;10739;52.198;20.908;2023-02-15T14:15:08;68.80;;;33.50;;
21162;SDS011;10739;52.198;20.908;2023-02-15T14:18:04;64.63;;;32.35;;
21162;SDS011;10739;52.198;20.908;2023-02-15T14:20:47;66.80;;;33.00;;
21162;SDS011;10739;52.198;20.908;2023-02-15T14:23:49;58.90;;;30.98;;
21162;SDS011;10739;52.198;20.908;2023-02-15T14:31:55;65.95;;;35.20;;
21162;SDS011;10739;52.198;20.908;2023-02-15T14:34:30;74.05;;;36.65;;
21162;SDS011;10739;52.198;20.908;2023-02-15T14:46:47;76.90;;;35.17;;
21162;SDS011;10739;52.198;20.908;2023-02-15T14:49:31;72.20;;;36.30;;
21162;SDS011;10739;52.198;20.908;2023-02-15T14:52:04;69.45;;;34.95;;
21162;SDS011;10739;52.198;20.908;2023-02-15T14:59:26;62.88;;;31.42;;
21162;SDS011;10739;52.198;20.908;2023-02-15T15:02:40;68.63;;;33.55;;
21162;SDS011;10739;52.198;20.908;2023-02-15T15:05:24;64.80;;;32.85;;
21162;SDS011;10739;52.198;20.908;2023-02-15T15:08:21;60.70;;;30.33;;
21162;SDS011;10739;52.198;20.908;2023-02-15T15:10:56;59.67;;;31.70;;
21162;SDS011;10739;52.198;20.908;2023-02-15T15:13:59;60.55;;;30.42;;
21162;SDS011;10739;52.198;20.908;2023-02-15T15:16:30;63.13;;;31.77;;
21162;SDS011;10739;52.198;20.908;2023-02-15T15:22:18;65.85;;;30.90;;
21162;SDS011;10739;52.198;20.908;2023-02-15T15:24:51;63.58;;;29.10;;
21162;SDS011;10739;52.198;20.908;2023-02-15T15:32:54;57.60;;;27.95;;
21162;SDS011;10739;52.198;20.908;2023-02-15T15:53:49;50.72;;;25.77;;
21162;SDS011;10739;52.198;20.908;2023-02-15T15:56:26;53.20;;;28.60;;
21162;SDS011;10739;52.198;20.908;2023-02-15T15:59:01;57.15;;;26.88;;
21162;SDS011;10739;52.198;20.908;2023-02-15T16:01:41;54.85;;;25.67;;
21162;SDS011;10739;52.198;20.908;2023-02-15T16:04:13;49.75;;;26.27;;
21162;SDS011;10739;52.198;20.908;2023-02-15T16:06:51;55.72;;;27.02;;
21162;SDS011;10739;52.198;20.908;2023-02-15T16:09:22;47.05;;;26.60;;
21162;SDS011;10739;52.198;20.908;2023-02-15T16:11:52;52.67;;;26.42;;
21162;SDS011;10739;52.198;20.908;2023-02-15T16:14:30;50.22;;;26.10;;
21162;SDS011;10739;52.198;20.908;2023-02-15T16:17:06;51.70;;;27.15;;
21162;SDS011;10739;52.198;20.908;2023-02-15T16:19:42;53.55;;;27.27;;
21162;SDS011;10739;52.198;20.908;2023-02-15T16:22:13;57.47;;;28.90;;
21162;SDS011;10739;52.198;20.908;2023-02-15T16:28:12;57.10;;;29.25;;
21162;SDS011;10739;52.198;20.908;2023-02-15T16:30:39;61.70;;;29.92;;
21162;SDS011;10739;52.198;20.908;2023-02-15T16:35:58;55.60;;;29.30;;
21162;SDS011;10739;52.198;20.908;2023-02-15T16:38:52;56.53;;;30.35;;
21162;SDS011;10739;52.198;20.908;2023-02-15T16:41:35;58.40;;;28.30;;
21162;SDS011;10739;52.198;20.908;2023-02-15T16:44:04;60.78;;;29.38;;
21162;SDS011;10739;52.198;20.908;2023-02-15T16:46:46;59.20;;;28.98;;
21162;SDS011;10739;52.198;20.908;2023-02-15T16:51:53;59.25;;;27.42;;
21162;SDS011;10739;52.198;20.908;2023-02-15T16:54:27;69.03;;;31.63;;
21162;SDS011;10739;52.198;20.908;2023-02-15T16:56:56;63.00;;;29.85;;
21162;SDS011;10739;52.198;20.908;2023-02-15T17:05:02;54.03;;;28.95;;
21162;SDS011;10739;52.198;20.908;2023-02-15T17:07:41;58.88;;;30.17;;
21162;SDS011;10739;52.198;20.908;2023-02-15T17:10:34;60.17;;;31.33;;
21162;SDS011;10739;52.198;20.908;2023-02-15T17:13:13;56.60;;;30.38;;
21162;SDS011;10739;52.198;20.908;2023-02-15T17:15:43;61.95;;;30.30;;
21162;SDS011;10739;52.198;20.908;2023-02-15T17:18:34;66.90;;;32.25;;
21162;SDS011;10739;52.198;20.908;2023-02-15T17:21:17;54.50;;;29.45;;
21162;SDS011;10739;52.198;20.908;2023-02-15T17:23:50;61.33;;;31.15;;
21162;SDS011;10739;52.198;20.908;2023-02-15T17:26:29;58.15;;;31.80;;
21162;SDS011;10739;52.198;20.908;2023-02-15T17:31:58;58.75;;;32.08;;
21162;SDS011;10739;52.198;20.908;2023-02-15T17:37:26;64.65;;;32.47;;
21162;SDS011;10739;52.198;20.908;2023-02-15T17:42:52;62.10;;;30.63;;
21162;SDS011;10739;52.198;20.908;2023-02-15T17:45:20;64.75;;;32.25;;
21162;SDS011;10739;52.198;20.908;2023-02-15T17:47:50;55.97;;;32.13;;
21162;SDS011;10739;52.198;20.908;2023-02-15T17:50:18;56.63;;;30.20;;
21162;SDS011;10739;52.198;20.908;2023-02-15T17:52:51;70.78;;;33.83;;
21162;SDS011;10739;52.198;20.908;2023-02-15T17:55:20;60.15;;;31.55;;
21162;SDS011;10739;52.198;20.908;2023-02-15T17:58:12;56.88;;;30.05;;
21162;SDS011;10739;52.198;20.908;2023-02-15T18:00:44;59.53;;;30.90;;
21162;SDS011;10739;52.198;20.908;2023-02-15T18:06:24;61.72;;;29.98;;
21162;SDS011;10739;52.198;20.908;2023-02-15T18:09:10;59.28;;;28.95;;
21162;SDS011;10739;52.198;20.908;2023-02-15T18:12:01;59.17;;;31.40;;
21162;SDS011;10739;52.198;20.908;2023-02-15T18:14:31;58.05;;;32.15;;